Time;durP1;ratioP1;P1;durP2;ratioP2;P2;SDS_P1;SDS_P2;PMS_P1;PMS_P2;Temp;Humidity;BMP_temperature;BMP_pressure;BME280_temperature;BME280_humidity;BME280_pressure;Samples;Min_cycle;Max_cycle;Signal;HPM_P1;HPM_P2
2021/03/02 05:01:07;;;;;;;51.92;16.25;;;0.40;99.90;;;;;;5611128;23;20236;-68
2021/03/02 05:03:33;;;;;;;67.93;17.55;;;0.50;99.90;;;;;;4974715;28;20209;-67
2021/03/02 05:05:59;;;;;;;32.90;14.85;;;0.50;99.90;;;;;;4973572;28;20600;-67
2021/03/02 05:08:25;;;;;;;41.65;15.07;;;0.50;99.90;;;;;;4974804;28;20630;-67
2021/03/02 05:10:52;;;;;;;36.92;14.18;;;0.50;99.90;;;;;;4961875;28;20583;-67
2021/03/02 05:13:18;;;;;;;68.07;16.52;;;0.40;99.90;;;;;;4955751;28;20212;-67
2021/03/02 05:15:44;;;;;;;46.10;16.98;;;0.40;99.90;;;;;;4956025;28;20205;-68
2021/03/02 05:18:12;;;;;;;54.85;16.20;;;0.40;99.90;;;;;;4955741;28;20215;-68
2021/03/02 05:20:38;;;;;;;40.17;15.93;;;0.40;99.90;;;;;;4963128;28;20598;-66
2021/03/02 05:23:05;;;;;;;42.33;17.52;;;0.40;99.90;;;;;;4975072;28;20272;-67
2021/03/02 05:25:31;;;;;;;51.10;16.67;;;0.40;99.90;;;;;;4966960;28;20298;-68
2021/03/02 05:27:58;;;;;;;35.50;14.93;;;0.40;99.90;;;;;;4955864;28;20209;-67
2021/03/02 05:30:24;;;;;;;40.10;16.08;;;0.30;99.90;;;;;;4955953;28;20639;-68
2021/03/02 05:32:51;;;;;;;35.90;14.05;;;0.30;99.90;;;;;;4955545;28;20214;-67
2021/03/02 05:35:18;;;;;;;32.47;16.20;;;0.20;99.90;;;;;;4959850;28;20204;-67
2021/03/02 05:37:44;;;;;;;51.35;15.52;;;0.20;99.90;;;;;;4973833;28;20584;-68
2021/03/02 05:40:11;;;;;;;46.97;14.27;;;0.10;99.90;;;;;;4968970;28;20213;-68
2021/03/02 05:42:37;;;;;;;74.03;17.38;;;0.00;99.90;;;;;;4965621;28;20255;-68
2021/03/02 05:45:05;;;;;;;70.47;16.88;;;0.00;99.90;;;;;;4957815;28;20260;-68
2021/03/02 05:47:33;;;;;;;42.15;15.63;;;0.10;99.90;;;;;;4973310;28;20620;-68
2021/03/02 05:50:00;;;;;;;66.03;16.63;;;0.00;99.90;;;;;;4970577;28;20284;-68
2021/03/02 05:52:28;;;;;;;44.33;15.45;;;0.00;99.90;;;;;;4955621;28;20626;-68
2021/03/02 05:54:54;;;;;;;48.40;16.88;;;-0.10;99.90;;;;;;4953557;28;20205;-68
2021/03/02 05:57:21;;;;;;;51.38;14.63;;;-0.10;99.90;;;;;;4971439;28;20562;-68
2021/03/02 05:59:50;;;;;;;66.95;18.60;;;0.00;99.90;;;;;;4973635;28;20348;-67
2021/03/02 06:02:17;;;;;;;47.92;16.33;;;-0.10;99.90;;;;;;4972368;28;20320;-67
2021/03/02 06:04:43;;;;;;;62.72;18.98;;;0.00;99.90;;;;;;4958037;28;20330;-67
2021/03/02 06:07:09;;;;;;;42.00;16.52;;;0.00;99.90;;;;;;4954497;28;20552;-67
2021/03/02 06:09:36;;;;;;;54.80;18.63;;;0.00;99.90;;;;;;4968732;28;20208;-67
2021/03/02 06:12:04;;;;;;;52.33;18.02;;;0.00;99.90;;;;;;4955072;28;20252;-67
2021/03/02 06:14:33;;;;;;;42.05;17.52;;;0.00;99.90;;;;;;4967606;28;20280;-68
2021/03/02 06:17:00;;;;;;;70.95;19.60;;;0.00;99.90;;;;;;4960160;28;20296;-68
2021/03/02 06:19:39;;;;;;;32.33;16.08;;;0.00;99.90;;;;;;4965259;28;20582;-68
2021/03/02 06:22:05;;;;;;;51.50;18.13;;;-0.10;99.90;;;;;;4972213;28;20645;-67
2021/03/02 06:24:36;;;;;;;91.10;21.90;;;-0.10;99.90;;;;;;4962797;28;20210;-67
2021/03/02 06:27:07;;;;;;;75.70;20.27;;;-0.10;99.90;;;;;;4954976;28;20250;-67
2021/03/02 06:29:33;;;;;;;54.03;21.00;;;-0.10;99.90;;;;;;4965251;28;20208;-67
2021/03/02 06:31:59;;;;;;;52.50;18.20;;;-0.10;99.90;;;;;;4971825;28;20224;-68
2021/03/02 06:34:26;;;;;;;53.85;20.48;;;-0.10;99.90;;;;;;4962896;28;20662;-67
2021/03/02 06:37:00;;;;;;;68.20;21.50;;;0.00;99.90;;;;;;4958570;28;20592;-67
2021/03/02 06:39:30;;;;;;;68.60;22.90;;;0.00;99.90;;;;;;4962496;28;20385;-68
2021/03/02 06:42:17;;;;;;;50.60;20.23;;;0.00;99.90;;;;;;4972488;28;20374;-67
2021/03/02 06:44:45;;;;;;;56.72;20.10;;;0.10;99.90;;;;;;4967027;28;20236;-68
2021/03/02 06:47:13;;;;;;;59.20;23.15;;;0.20;99.90;;;;;;4972873;28;20227;-68
2021/03/02 06:49:42;;;;;;;41.08;18.83;;;0.20;99.90;;;;;;4967571;28;20513;-68
2021/03/02 06:52:16;;;;;;;56.35;20.88;;;0.20;99.90;;;;;;4973290;28;20259;-68
2021/03/02 06:54:46;;;;;;;48.05;19.65;;;0.20;99.90;;;;;;4963345;28;20300;-67
2021/03/02 06:57:12;;;;;;;64.95;21.13;;;0.20;99.90;;;;;;4954280;28;20268;-67
2021/03/02 06:59:39;;;;;;;91.05;22.08;;;0.30;99.90;;;;;;4961797;28;20201;-67
2021/03/02 07:02:05;;;;;;;83.03;22.73;;;0.30;99.90;;;;;;4971364;28;20729;-67
2021/03/02 07:04:31;;;;;;;65.47;21.52;;;0.30;99.90;;;;;;4956826;28;20217;-67
2021/03/02 07:06:58;;;;;;;50.88;19.35;;;0.30;99.90;;;;;;4956381;28;20655;-69
2021/03/02 07:09:25;;;;;;;48.63;18.88;;;0.40;99.90;;;;;;4968095;28;20250;-67
2021/03/02 07:11:57;;;;;;;74.97;19.42;;;0.40;99.90;;;;;;4974828;28;20228;-67
2021/03/02 07:14:24;;;;;;;53.13;15.40;;;0.40;99.90;;;;;;4965154;28;20216;-67
2021/03/02 07:16:52;;;;;;;46.95;17.23;;;0.40;99.90;;;;;;4973682;28;20255;-67
2021/03/02 07:19:19;;;;;;;45.78;17.52;;;0.30;99.90;;;;;;4954122;28;20221;-68
2021/03/02 07:21:50;;;;;;;39.00;15.57;;;0.30;99.90;;;;;;4955149;28;20229;-68
2021/03/02 07:24:18;;;;;;;49.50;29.95;;;0.30;99.90;;;;;;4969538;28;20705;-68
2021/03/02 07:26:46;;;;;;;36.40;17.23;;;0.40;99.90;;;;;;4961390;28;20212;-68
2021/03/02 07:29:13;;;;;;;42.08;17.77;;;0.50;99.90;;;;;;4969048;28;20200;-68
2021/03/02 07:31:41;;;;;;;34.38;15.30;;;0.50;99.90;;;;;;4965142;28;20280;-66
2021/03/02 07:34:10;;;;;;;31.60;15.48;;;0.60;99.90;;;;;;4952602;28;20276;-67
2021/03/02 07:36:38;;;;;;;28.48;14.35;;;0.70;99.90;;;;;;4963682;28;20213;-68
2021/03/02 07:39:16;;;;;;;35.80;18.00;;;0.70;99.90;;;;;;4965647;28;20205;-68
2021/03/02 07:41:42;;;;;;;33.47;16.75;;;0.80;99.90;;;;;;4952869;28;20238;-67
2021/03/02 07:44:09;;;;;;;29.63;14.98;;;0.90;99.90;;;;;;4957914;28;20208;-68
2021/03/02 07:46:47;;;;;;;38.90;16.55;;;1.00;99.90;;;;;;4961687;28;20209;-67
2021/03/02 07:49:31;;;;;;;40.20;17.05;;;1.00;99.90;;;;;;4954366;28;20669;-68
2021/03/02 07:52:18;;;;;;;43.13;16.73;;;1.10;99.90;;;;;;4953418;28;20233;-67
2021/03/02 07:54:46;;;;;;;63.83;19.10;;;1.00;99.90;;;;;;4949305;28;20357;-69
2021/03/02 07:57:25;;;;;;;53.83;17.20;;;1.00;99.90;;;;;;4953698;28;20223;-67
2021/03/02 08:00:25;;;;;;;35.70;15.48;;;1.00;99.90;;;;;;4956325;28;20212;-67
2021/03/02 08:03:28;;;;;;;30.88;16.13;;;1.10;99.90;;;;;;4968694;28;20207;-67
2021/03/02 08:06:00;;;;;;;29.48;16.10;;;1.10;99.90;;;;;;4965602;28;20616;-70
2021/03/02 08:08:36;;;;;;;31.45;15.00;;;1.10;99.90;;;;;;4976028;28;20208;-71
2021/03/02 08:11:22;;;;;;;30.30;16.15;;;1.20;99.90;;;;;;4956625;28;20251;-70
2021/03/02 08:13:49;;;;;;;39.70;15.95;;;1.20;99.90;;;;;;4956286;28;20290;-70
2021/03/02 08:16:15;;;;;;;34.30;16.02;;;1.20;99.90;;;;;;4956865;28;20715;-70
2021/03/02 08:18:42;;;;;;;31.75;15.13;;;1.30;99.90;;;;;;4956199;28;20217;-67
2021/03/02 08:21:14;;;;;;;32.22;16.90;;;1.30;99.90;;;;;;4969586;28;20224;-70
2021/03/02 08:23:51;;;;;;;30.20;16.75;;;1.40;99.90;;;;;;4966794;28;20205;-68
2021/03/02 08:26:26;;;;;;;31.27;16.05;;;1.50;99.90;;;;;;4956725;28;20350;-70
2021/03/02 08:29:07;;;;;;;24.70;13.70;;;1.60;99.90;;;;;;4972751;28;20204;-70
2021/03/02 08:31:34;;;;;;;28.35;14.13;;;1.70;99.90;;;;;;4956698;28;20229;-69
2021/03/02 08:34:02;;;;;;;27.35;15.63;;;1.80;99.90;;;;;;4957603;28;20212;-71
2021/03/02 08:36:29;;;;;;;23.58;13.45;;;1.80;99.90;;;;;;4976093;28;20223;-70
2021/03/02 08:38:56;;;;;;;45.17;24.92;;;1.90;99.90;;;;;;4948975;28;20212;-70
2021/03/02 08:41:29;;;;;;;21.77;14.07;;;1.90;99.90;;;;;;4956386;28;20241;-70
2021/03/02 08:43:56;;;;;;;25.25;14.25;;;2.00;99.90;;;;;;4955980;28;20309;-69
2021/03/02 08:46:30;;;;;;;23.17;13.15;;;2.00;99.90;;;;;;4959518;28;20272;-70
2021/03/02 08:48:57;;;;;;;32.88;18.98;;;2.00;99.90;;;;;;4973727;28;20218;-70
2021/03/02 08:51:25;;;;;;;58.97;30.42;;;2.10;99.90;;;;;;4973033;28;20716;-70
2021/03/02 08:53:53;;;;;;;23.50;14.68;;;2.30;99.90;;;;;;4973684;28;20252;-70
2021/03/02 08:56:25;;;;;;;25.92;13.43;;;2.30;99.90;;;;;;4973415;28;20212;-70
2021/03/02 08:58:53;;;;;;;25.85;14.77;;;2.20;99.90;;;;;;4955649;28;20241;-69
2021/03/02 09:01:27;;;;;;;17.48;12.35;;;2.20;99.90;;;;;;4956955;28;20232;-69
2021/03/02 09:04:05;;;;;;;23.70;13.70;;;2.30;99.90;;;;;;4972160;28;20294;-69
2021/03/02 09:06:31;;;;;;;20.65;14.10;;;2.30;99.90;;;;;;4955981;28;20213;-69
2021/03/02 09:08:58;;;;;;;23.77;14.40;;;2.40;99.90;;;;;;4968369;28;20217;-69
2021/03/02 09:11:27;;;;;;;19.98;13.30;;;2.50;99.90;;;;;;4955764;28;20244;-69
2021/03/02 09:13:55;;;;;;;23.88;14.65;;;2.60;99.90;;;;;;4954604;28;20342;-68
2021/03/02 09:16:26;;;;;;;20.10;13.40;;;2.60;99.90;;;;;;4955477;28;20209;-69
2021/03/02 09:19:03;;;;;;;21.45;14.10;;;2.60;99.90;;;;;;4967980;28;20279;-67
2021/03/02 09:21:30;;;;;;;24.63;14.73;;;2.50;99.90;;;;;;4961746;28;20259;-68
2021/03/02 09:23:56;;;;;;;23.02;14.10;;;2.60;99.90;;;;;;4956709;28;20264;-68
2021/03/02 09:26:24;;;;;;;23.48;14.65;;;2.70;99.90;;;;;;4959140;28;20208;-68
2021/03/02 09:28:53;;;;;;;21.90;13.55;;;2.80;99.90;;;;;;4963514;28;20204;-68
2021/03/02 09:31:19;;;;;;;24.08;14.35;;;2.90;99.90;;;;;;4974724;28;20228;-67
2021/03/02 09:33:47;;;;;;;22.88;14.63;;;3.00;99.90;;;;;;4954956;28;20544;-68
2021/03/02 09:36:14;;;;;;;23.10;14.05;;;3.10;99.90;;;;;;4955885;28;20205;-68
2021/03/02 09:38:40;;;;;;;24.15;14.50;;;3.10;99.90;;;;;;4958352;28;20204;-69
2021/03/02 09:41:06;;;;;;;23.30;14.85;;;3.10;99.90;;;;;;4975163;28;20271;-69
2021/03/02 09:43:37;;;;;;;21.75;12.75;;;3.00;99.90;;;;;;4973452;28;20224;-68
2021/03/02 09:46:04;;;;;;;19.90;13.15;;;3.00;99.90;;;;;;4973602;28;20216;-70
2021/03/02 09:48:44;;;;;;;23.80;15.73;;;3.00;99.90;;;;;;4957415;28;20541;-69
2021/03/02 09:51:28;;;;;;;22.60;15.70;;;3.20;99.90;;;;;;4976281;28;20224;-69
2021/03/02 09:53:54;;;;;;;25.75;14.77;;;3.20;99.90;;;;;;4965840;28;20233;-69
2021/03/02 09:56:21;;;;;;;22.98;14.63;;;3.20;99.90;;;;;;4955914;28;20548;-69
2021/03/02 09:58:48;;;;;;;21.02;13.32;;;3.30;99.90;;;;;;4961986;28;20209;-69
2021/03/02 10:01:25;;;;;;;24.20;14.63;;;3.30;99.90;;;;;;4961723;28;20236;-69
2021/03/02 10:03:51;;;;;;;23.17;15.10;;;3.30;99.90;;;;;;4962093;28;20212;-69
2021/03/02 10:06:23;;;;;;;21.83;14.35;;;3.40;99.90;;;;;;4955606;28;20209;-69
2021/03/02 10:08:49;;;;;;;17.95;13.45;;;3.50;99.90;;;;;;4959944;28;20649;-69
2021/03/02 10:11:21;;;;;;;21.15;13.52;;;3.50;99.90;;;;;;4955107;28;20225;-69
2021/03/02 10:13:51;;;;;;;26.65;15.20;;;3.50;99.90;;;;;;4954659;28;20243;-69
2021/03/02 10:16:21;;;;;;;21.98;14.43;;;3.60;99.90;;;;;;4955011;28;20514;-69
2021/03/02 10:18:56;;;;;;;21.98;14.23;;;3.70;99.90;;;;;;4954160;28;20217;-69
2021/03/02 10:21:23;;;;;;;17.42;12.68;;;3.60;99.90;;;;;;4969351;28;20223;-69
2021/03/02 10:23:52;;;;;;;18.60;13.82;;;3.60;99.90;;;;;;4964744;28;20206;-68
2021/03/02 10:26:23;;;;;;;21.92;14.13;;;3.60;99.90;;;;;;4963086;28;20222;-69
2021/03/02 10:28:50;;;;;;;23.92;15.48;;;3.60;99.90;;;;;;4961153;28;20213;-69
2021/03/02 10:31:17;;;;;;;25.83;14.93;;;3.70;99.90;;;;;;4955950;28;20296;-68
2021/03/02 10:33:43;;;;;;;21.02;14.57;;;3.80;99.90;;;;;;4967704;28;20209;-69
2021/03/02 10:36:20;;;;;;;25.23;16.38;;;3.90;99.90;;;;;;4972194;28;20209;-68
2021/03/02 10:38:47;;;;;;;18.85;13.20;;;4.00;99.90;;;;;;4967647;28;20536;-69
2021/03/02 10:41:13;;;;;;;19.27;14.98;;;4.10;99.90;;;;;;4953689;28;20659;-67
2021/03/02 10:43:39;;;;;;;23.50;15.55;;;4.10;99.90;;;;;;4971681;28;20544;-69
2021/03/02 10:46:06;;;;;;;20.10;14.75;;;4.10;99.90;;;;;;4970701;28;20204;-69
2021/03/02 10:48:32;;;;;;;19.58;14.25;;;4.20;99.90;;;;;;4953977;28;20236;-68
2021/03/02 10:50:59;;;;;;;24.63;15.10;;;4.30;99.90;;;;;;4956664;28;20733;-69
2021/03/02 10:53:25;;;;;;;24.48;15.75;;;4.40;99.90;;;;;;4957334;28;20232;-69
2021/03/02 10:55:51;;;;;;;22.45;14.88;;;4.50;99.90;;;;;;4957375;28;20295;-69
2021/03/02 10:58:18;;;;;;;21.92;15.90;;;4.60;99.90;;;;;;4967320;28;20623;-68
2021/03/02 11:00:44;;;;;;;24.98;15.82;;;4.80;99.90;;;;;;4961606;28;20233;-67
2021/03/02 11:03:11;;;;;;;21.85;14.13;;;4.90;99.90;;;;;;4970707;28;20211;-67
2021/03/02 11:05:37;;;;;;;23.48;15.00;;;5.00;99.90;;;;;;4956665;28;20204;-68
2021/03/02 11:08:04;;;;;;;21.05;15.88;;;5.20;99.90;;;;;;4973330;28;20245;-68
2021/03/02 11:10:30;;;;;;;24.42;14.77;;;5.30;99.90;;;;;;4954268;28;20229;-68
2021/03/02 11:12:56;;;;;;;19.83;16.10;;;5.30;99.90;;;;;;4953453;28;20209;-68
2021/03/02 11:15:22;;;;;;;21.73;14.35;;;5.50;99.90;;;;;;4954541;28;20205;-68
2021/03/02 11:17:49;;;;;;;22.38;14.80;;;5.60;99.90;;;;;;4954655;28;20209;-68
2021/03/02 11:20:17;;;;;;;18.00;14.02;;;5.70;99.90;;;;;;4961752;28;20200;-68
2021/03/02 11:22:43;;;;;;;19.67;14.25;;;5.80;99.90;;;;;;4960882;28;20247;-68
2021/03/02 11:25:16;;;;;;;20.70;14.30;;;5.90;99.90;;;;;;4959110;28;20213;-70
2021/03/02 11:27:43;;;;;;;19.30;12.50;;;6.10;99.90;;;;;;4953833;28;20216;-69
2021/03/02 11:30:10;;;;;;;20.50;14.00;;;6.20;99.90;;;;;;4955990;28;20205;-69
2021/03/02 11:32:37;;;;;;;20.67;14.45;;;6.40;99.90;;;;;;4953376;28;20204;-69
2021/03/02 11:35:03;;;;;;;19.88;14.50;;;6.50;99.90;;;;;;4955335;28;20240;-69
2021/03/02 11:37:30;;;;;;;20.33;14.88;;;6.60;99.90;;;;;;4953444;28;20209;-69
2021/03/02 11:39:56;;;;;;;19.40;14.57;;;6.70;99.90;;;;;;4967209;28;20215;-70
2021/03/02 11:42:23;;;;;;;26.70;16.38;;;6.70;99.90;;;;;;4975135;28;20240;-69
2021/03/02 11:44:49;;;;;;;22.77;15.35;;;6.90;99.90;;;;;;4963431;28;20590;-69
2021/03/02 11:47:15;;;;;;;22.80;15.52;;;6.90;99.90;;;;;;4959624;28;20220;-66
2021/03/02 11:49:41;;;;;;;25.75;16.60;;;6.90;99.90;;;;;;4961352;28;20209;-69
2021/03/02 11:52:07;;;;;;;27.02;17.95;;;7.00;99.90;;;;;;4956316;28;20228;-68
2021/03/02 11:54:34;;;;;;;20.95;14.23;;;7.00;99.90;;;;;;4959184;28;20205;-69
2021/03/02 11:57:01;;;;;;;22.92;15.60;;;7.20;99.90;;;;;;4958388;28;20209;-70
2021/03/02 11:59:27;;;;;;;23.25;16.25;;;7.30;99.90;;;;;;4957286;28;20237;-69
2021/03/02 12:01:53;;;;;;;20.90;14.68;;;7.30;99.90;;;;;;4957533;28;20237;-68
2021/03/02 12:04:19;;;;;;;24.65;15.82;;;7.40;99.90;;;;;;4967557;28;20304;-69
2021/03/02 12:06:45;;;;;;;23.88;15.25;;;7.30;99.90;;;;;;4957384;28;20212;-69
2021/03/02 12:09:11;;;;;;;20.35;15.48;;;7.50;99.90;;;;;;4974462;28;20651;-69
2021/03/02 12:11:38;;;;;;;21.48;15.50;;;7.50;99.90;;;;;;4976945;28;20545;-68
2021/03/02 12:14:05;;;;;;;17.98;13.27;;;7.60;99.90;;;;;;4965751;28;20212;-68
2021/03/02 12:16:31;;;;;;;19.80;14.82;;;7.70;99.90;;;;;;4957663;28;20260;-69
2021/03/02 12:18:57;;;;;;;18.40;12.38;;;7.70;99.90;;;;;;4971236;28;20215;-68
2021/03/02 12:21:23;;;;;;;22.23;15.93;;;7.90;99.90;;;;;;4969069;28;20284;-68
2021/03/02 12:23:49;;;;;;;21.83;14.05;;;7.90;99.90;;;;;;4968778;28;20204;-68
2021/03/02 12:26:16;;;;;;;21.25;15.40;;;8.00;99.90;;;;;;4965115;28;20209;-69
2021/03/02 12:28:43;;;;;;;22.58;15.07;;;8.10;99.90;;;;;;4957411;28;20533;-69
2021/03/02 12:31:09;;;;;;;24.02;15.50;;;8.10;99.90;;;;;;4966199;28;20220;-70
2021/03/02 12:33:35;;;;;;;24.27;14.98;;;8.20;99.90;;;;;;4974578;28;20275;-68
2021/03/02 12:36:01;;;;;;;19.92;16.08;;;8.20;99.90;;;;;;4968004;28;20210;-70
2021/03/02 12:38:27;;;;;;;22.45;15.95;;;8.30;99.90;;;;;;4968148;28;20573;-69
2021/03/02 12:40:54;;;;;;;23.08;16.73;;;8.30;99.90;;;;;;4970629;28;20229;-67
2021/03/02 12:43:21;;;;;;;21.85;15.13;;;8.40;99.90;;;;;;4967124;28;20281;-67
2021/03/02 12:45:48;;;;;;;20.73;14.70;;;8.50;99.90;;;;;;4968856;28;20634;-68
2021/03/02 12:48:14;;;;;;;24.30;16.02;;;8.60;99.90;;;;;;4958962;28;20208;-68
2021/03/02 12:50:40;;;;;;;20.48;13.35;;;8.60;99.90;;;;;;4970566;28;20237;-72
2021/03/02 12:53:07;;;;;;;20.92;15.10;;;8.70;99.90;;;;;;4955640;28;20213;-69
2021/03/02 12:55:33;;;;;;;25.70;15.98;;;8.70;99.90;;;;;;4967245;28;20208;-70
2021/03/02 12:57:59;;;;;;;21.77;15.50;;;8.80;99.90;;;;;;4974864;28;20215;-70
2021/03/02 13:00:26;;;;;;;22.90;16.25;;;8.80;99.90;;;;;;4957161;28;20205;-70
2021/03/02 13:02:58;;;;;;;22.33;15.40;;;8.90;99.90;;;;;;4962566;28;20260;-71
2021/03/02 13:05:25;;;;;;;21.90;15.65;;;8.90;99.90;;;;;;4973883;28;20208;-69
2021/03/02 13:07:52;;;;;;;23.75;16.40;;;8.90;99.90;;;;;;4967017;28;20206;-68
2021/03/02 13:10:19;;;;;;;24.58;16.75;;;8.90;99.90;;;;;;4963582;28;20205;-69
2021/03/02 13:12:45;;;;;;;21.55;15.20;;;9.00;99.90;;;;;;4963868;28;20204;-69
2021/03/02 13:15:12;;;;;;;22.60;16.23;;;9.10;99.90;;;;;;4960837;28;20640;-70
2021/03/02 13:17:39;;;;;;;23.45;15.75;;;9.20;99.90;;;;;;4956839;28;20678;-69
2021/03/02 13:20:07;;;;;;;20.67;14.73;;;9.20;99.90;;;;;;4958721;28;20211;-70
2021/03/02 13:22:34;;;;;;;23.27;14.60;;;9.30;99.90;;;;;;4957323;28;20228;-70
2021/03/02 13:25:00;;;;;;;21.80;15.60;;;9.30;99.90;;;;;;4955860;28;20205;-70
2021/03/02 13:27:27;;;;;;;21.77;14.60;;;9.40;99.90;;;;;;4963293;28;20216;-69
2021/03/02 13:29:56;;;;;;;23.45;16.52;;;9.50;99.90;;;;;;4975723;28;20212;-71
2021/03/02 13:32:26;;;;;;;20.58;16.13;;;9.50;99.90;;;;;;4966917;28;20681;-69
2021/03/02 13:34:53;;;;;;;21.10;15.57;;;9.60;99.90;;;;;;4955443;28;20241;-67
2021/03/02 13:37:21;;;;;;;18.25;13.35;;;9.60;99.90;;;;;;4956592;28;20213;-68
2021/03/02 13:39:48;;;;;;;20.65;14.13;;;9.70;99.90;;;;;;4955548;28;20706;-67
2021/03/02 13:42:15;;;;;;;21.50;16.27;;;9.70;99.90;;;;;;4960598;28;20331;-69
2021/03/02 13:44:41;;;;;;;19.85;14.65;;;9.80;99.90;;;;;;4962228;28;20264;-68
2021/03/02 13:47:09;;;;;;;21.70;14.45;;;9.80;99.90;;;;;;4959496;28;20204;-67
2021/03/02 13:49:35;;;;;;;21.45;14.32;;;9.80;99.90;;;;;;4974581;28;20212;-67
2021/03/02 13:52:03;;;;;;;19.10;14.13;;;9.90;99.90;;;;;;4968573;28;20770;-70
2021/03/02 13:54:30;;;;;;;18.77;13.48;;;9.90;99.90;;;;;;4955584;28;20213;-68
2021/03/02 13:57:00;;;;;;;17.33;13.45;;;9.90;99.90;;;;;;4973052;28;20217;-67
2021/03/02 13:59:26;;;;;;;17.27;12.80;;;10.00;99.90;;;;;;4972642;28;20252;-68
2021/03/02 14:01:52;;;;;;;17.17;13.88;;;10.10;99.90;;;;;;4972535;28;20694;-68
2021/03/02 14:04:19;;;;;;;17.27;14.52;;;10.20;99.90;;;;;;4969187;28;20846;-67
2021/03/02 14:06:46;;;;;;;21.65;15.57;;;10.20;99.90;;;;;;4960294;28;20204;-68
2021/03/02 14:09:14;;;;;;;18.80;14.40;;;10.20;99.90;;;;;;4971831;28;20208;-67
2021/03/02 14:11:42;;;;;;;19.85;14.00;;;10.20;99.90;;;;;;4954822;28;20700;-66
2021/03/02 14:14:09;;;;;;;18.08;13.90;;;10.20;99.90;;;;;;4955510;28;20283;-67
2021/03/02 14:16:36;;;;;;;19.13;14.18;;;10.30;99.90;;;;;;4973975;28;20216;-67
2021/03/02 14:19:03;;;;;;;18.75;14.10;;;10.30;99.90;;;;;;4973139;28;20205;-67
2021/03/02 14:21:31;;;;;;;19.30;13.15;;;10.30;99.90;;;;;;4955017;28;20295;-67
2021/03/02 14:23:57;;;;;;;18.25;14.25;;;10.30;99.90;;;;;;4958098;28;20208;-66
2021/03/02 14:26:24;;;;;;;18.13;13.93;;;10.30;99.90;;;;;;4954415;28;20224;-67
2021/03/02 14:28:51;;;;;;;16.92;12.75;;;10.40;99.90;;;;;;4963115;28;20211;-67
2021/03/02 14:31:17;;;;;;;17.75;12.45;;;10.40;99.90;;;;;;4973566;28;20236;-67
2021/03/02 14:33:44;;;;;;;14.90;11.93;;;10.40;99.90;;;;;;4965477;28;20208;-66
2021/03/02 14:36:11;;;;;;;16.98;13.15;;;10.40;99.90;;;;;;4954531;28;20264;-67
2021/03/02 14:38:37;;;;;;;17.92;13.10;;;10.40;99.90;;;;;;4959854;28;20204;-68
2021/03/02 14:41:05;;;;;;;14.60;12.15;;;10.40;99.90;;;;;;4960580;28;20247;-67
2021/03/02 14:43:36;;;;;;;13.27;11.43;;;10.40;99.90;;;;;;4958485;28;20201;-68
2021/03/02 14:46:04;;;;;;;15.52;11.93;;;10.40;99.90;;;;;;4973143;28;20275;-68
2021/03/02 14:48:33;;;;;;;15.20;12.20;;;10.40;99.90;;;;;;4968214;28;20513;-68
2021/03/02 14:51:01;;;;;;;16.25;12.02;;;10.40;99.90;;;;;;4955077;28;20228;-68
2021/03/02 14:53:28;;;;;;;15.23;12.60;;;10.40;99.90;;;;;;4952968;28;20326;-68
2021/03/02 14:55:58;;;;;;;13.98;11.52;;;10.30;99.90;;;;;;4956975;28;20205;-68
2021/03/02 14:58:27;;;;;;;15.13;11.15;;;10.30;99.90;;;;;;4954604;28;20207;-69
2021/03/02 15:00:57;;;;;;;13.95;11.50;;;10.30;99.90;;;;;;4963080;28;20232;-69
2021/03/02 15:03:25;;;;;;;14.90;11.60;;;10.20;99.90;;;;;;4961379;28;20239;-68
2021/03/02 15:05:53;;;;;;;14.27;11.40;;;10.20;99.90;;;;;;4962297;28;20552;-70
2021/03/02 15:08:19;;;;;;;15.98;12.15;;;10.20;99.90;;;;;;4969304;28;20204;-69
2021/03/02 15:10:46;;;;;;;16.30;11.85;;;10.20;99.90;;;;;;4955720;28;20232;-69
2021/03/02 15:13:13;;;;;;;15.10;11.82;;;10.20;99.90;;;;;;4967780;28;20684;-70
2021/03/02 15:15:40;;;;;;;14.48;11.52;;;10.20;99.90;;;;;;4973644;28;20205;-69
2021/03/02 15:18:07;;;;;;;16.05;12.60;;;10.20;99.90;;;;;;4957580;28;20205;-68
2021/03/02 15:20:35;;;;;;;15.00;10.90;;;10.20;99.90;;;;;;4955984;28;20533;-69
2021/03/02 15:23:05;;;;;;;12.93;11.05;;;10.20;99.90;;;;;;4968141;28;20306;-69
2021/03/02 15:25:33;;;;;;;15.35;12.35;;;10.20;99.90;;;;;;4959744;28;20276;-70
2021/03/02 15:27:59;;;;;;;12.77;10.60;;;10.10;99.90;;;;;;4958720;28;20205;-69
2021/03/02 15:30:27;;;;;;;13.13;10.60;;;10.10;99.90;;;;;;4956988;28;20232;-68
2021/03/02 15:32:54;;;;;;;13.32;11.88;;;10.10;99.90;;;;;;4959996;28;20551;-69
2021/03/02 15:35:21;;;;;;;13.93;11.15;;;10.10;99.90;;;;;;4958547;28;20201;-69
2021/03/02 15:37:48;;;;;;;14.85;10.80;;;10.10;99.90;;;;;;4969599;28;20220;-68
2021/03/02 15:40:16;;;;;;;13.82;12.13;;;10.10;99.90;;;;;;4963859;28;20225;-67
2021/03/02 15:42:45;;;;;;;17.55;12.20;;;10.00;99.90;;;;;;4968637;28;20295;-69
2021/03/02 15:45:14;;;;;;;15.23;12.80;;;10.00;99.90;;;;;;4970968;28;20687;-68
2021/03/02 15:47:40;;;;;;;16.02;11.07;;;10.00;99.90;;;;;;4955975;28;20225;-69
2021/03/02 15:50:10;;;;;;;15.55;10.77;;;10.00;99.90;;;;;;4961312;28;20212;-67
2021/03/02 15:52:37;;;;;;;15.35;11.13;;;9.90;99.90;;;;;;4971457;28;20590;-66
2021/03/02 15:55:05;;;;;;;16.63;10.57;;;9.80;99.90;;;;;;4959138;28;20210;-67
2021/03/02 15:57:32;;;;;;;19.10;11.45;;;9.80;99.90;;;;;;4956866;28;20209;-67
2021/03/02 15:59:58;;;;;;;13.27;10.23;;;9.80;99.90;;;;;;4965524;28;20205;-68
2021/03/02 16:02:29;;;;;;;15.00;10.65;;;9.70;99.90;;;;;;4972487;28;20236;-67
2021/03/02 16:04:59;;;;;;;12.00;9.07;;;9.70;99.90;;;;;;4966986;28;20193;-66
2021/03/02 16:07:28;;;;;;;13.60;10.07;;;9.60;99.90;;;;;;4970015;28;20209;-68
2021/03/02 16:10:04;;;;;;;13.02;10.50;;;9.60;99.90;;;;;;4968748;28;20248;-67
2021/03/02 16:12:34;;;;;;;16.65;10.55;;;9.50;99.90;;;;;;4953780;28;20233;-68
2021/03/02 16:15:03;;;;;;;14.05;10.48;;;9.50;99.90;;;;;;4971935;28;20213;-68
2021/03/02 16:17:36;;;;;;;15.45;10.90;;;9.40;99.90;;;;;;4972935;28;20224;-69
2021/03/02 16:20:03;;;;;;;16.40;11.05;;;9.40;99.90;;;;;;4972437;28;20201;-69
2021/03/02 16:22:34;;;;;;;11.77;10.05;;;9.30;99.90;;;;;;4972769;28;20236;-70
2021/03/02 16:25:03;;;;;;;12.50;10.55;;;9.30;99.90;;;;;;4975240;28;20204;-69
2021/03/02 16:27:30;;;;;;;12.98;10.50;;;9.20;99.90;;;;;;4970728;28;20302;-68
2021/03/02 16:29:58;;;;;;;15.27;9.63;;;9.10;99.90;;;;;;4975712;28;20227;-68
2021/03/02 16:32:25;;;;;;;10.35;8.95;;;9.10;99.90;;;;;;4969698;28;20224;-69
2021/03/02 16:34:53;;;;;;;13.32;10.20;;;9.00;99.90;;;;;;4973682;28;20263;-68
2021/03/02 16:37:20;;;;;;;13.32;10.70;;;8.90;99.90;;;;;;4976381;28;20251;-69
2021/03/02 16:39:47;;;;;;;12.18;9.82;;;8.90;99.90;;;;;;4960471;28;20213;-68
2021/03/02 16:42:14;;;;;;;13.13;10.07;;;8.80;99.90;;;;;;4965933;28;20228;-71
2021/03/02 16:44:42;;;;;;;15.98;12.02;;;8.70;99.90;;;;;;4957127;28;20209;-68
2021/03/02 16:47:12;;;;;;;19.50;17.25;;;8.70;99.90;;;;;;4967661;28;20205;-69
2021/03/02 16:49:38;;;;;;;16.48;12.90;;;8.60;99.90;;;;;;4968248;28;20209;-69
2021/03/02 16:52:10;;;;;;;15.70;11.30;;;8.50;99.90;;;;;;4956039;28;20555;-69
2021/03/02 16:54:38;;;;;;;13.23;11.30;;;8.40;99.90;;;;;;4958384;28;20279;-69
2021/03/02 16:57:09;;;;;;;12.70;10.55;;;8.40;99.90;;;;;;4963028;28;20296;-68
2021/03/02 16:59:39;;;;;;;13.32;9.48;;;8.30;99.90;;;;;;4956219;28;20296;-68
2021/03/02 17:02:10;;;;;;;12.52;10.07;;;8.20;99.90;;;;;;4954418;28;20229;-68
2021/03/02 17:04:38;;;;;;;12.70;9.55;;;8.10;99.90;;;;;;4955668;28;20205;-69
2021/03/02 17:07:06;;;;;;;13.30;11.05;;;8.10;99.90;;;;;;4954357;28;20212;-68
2021/03/02 17:09:36;;;;;;;14.77;10.80;;;8.00;99.90;;;;;;4956048;28;20202;-70
2021/03/02 17:12:03;;;;;;;14.85;10.68;;;7.90;99.90;;;;;;4956051;28;20229;-68
2021/03/02 17:14:29;;;;;;;15.55;11.25;;;7.80;99.90;;;;;;4956194;28;20213;-69
2021/03/02 17:16:55;;;;;;;12.25;10.15;;;7.80;99.90;;;;;;4956396;28;20202;-69
2021/03/02 17:19:22;;;;;;;14.82;10.45;;;7.70;99.90;;;;;;4955193;28;20648;-70
2021/03/02 17:21:48;;;;;;;15.00;10.75;;;7.60;99.90;;;;;;4954925;28;20233;-69
2021/03/02 17:24:15;;;;;;;16.33;11.93;;;7.50;99.90;;;;;;4954449;28;20205;-69
2021/03/02 17:26:41;;;;;;;18.00;10.90;;;7.40;99.90;;;;;;4956424;28;20264;-69
2021/03/02 17:29:08;;;;;;;12.80;10.43;;;7.40;99.90;;;;;;4955707;28;20327;-69
2021/03/02 17:31:34;;;;;;;14.82;10.85;;;7.30;99.90;;;;;;4955280;28;20692;-69
2021/03/02 17:34:01;;;;;;;15.05;10.80;;;7.20;99.90;;;;;;4957171;28;20217;-69
2021/03/02 17:36:28;;;;;;;15.20;11.90;;;7.20;99.90;;;;;;4965590;28;20209;-68
2021/03/02 17:38:54;;;;;;;15.70;12.55;;;7.10;99.90;;;;;;4958739;28;20575;-68
2021/03/02 17:41:20;;;;;;;16.77;12.48;;;7.00;99.90;;;;;;4964257;28;20225;-68